Time;durP1;ratioP1;P1;durP2;ratioP2;P2;SDS_P1;SDS_P2;PMS_P1;PMS_P2;Temp;Humidity;BMP_temperature;BMP_pressure;BME280_temperature;BME280_humidity;BME280_pressure;Samples;Min_cycle;Max_cycle;Signal;HPM_P1;HPM_P2
2024/03/30 00:00:54;;;;;;;13.70;10.60;;;10.80;99.90;;;;;;779734;183;26483;-81
2024/03/30 00:03:21;;;;;;;15.83;11.27;;;10.80;99.90;;;;;;786428;180;26480;-82
2024/03/30 00:05:47;;;;;;;14.73;11.80;;;10.80;99.90;;;;;;769001;186;27077;-79
2024/03/30 00:08:14;;;;;;;17.07;11.90;;;10.70;99.90;;;;;;758586;186;26486;-81
2024/03/30 00:10:41;;;;;;;17.43;12.27;;;10.80;99.90;;;;;;773788;183;26485;-82
2024/03/30 00:13:07;;;;;;;20.57;11.80;;;10.80;99.90;;;;;;779296;183;26471;-80
2024/03/30 00:15:34;;;;;;;18.67;13.50;;;10.80;99.90;;;;;;783154;183;26451;-82
2024/03/30 00:18:01;;;;;;;20.43;14.97;;;10.70;99.90;;;;;;786803;181;26468;-82
2024/03/30 00:20:27;;;;;;;18.30;12.67;;;10.80;99.90;;;;;;785544;182;26501;-81
2024/03/30 00:22:54;;;;;;;16.50;11.80;;;10.80;99.90;;;;;;785252;182;26474;-81
2024/03/30 00:25:21;;;;;;;15.73;11.43;;;10.80;99.90;;;;;;786536;183;26496;-83
2024/03/30 00:27:47;;;;;;;21.97;14.00;;;10.80;99.90;;;;;;786177;182;26510;-81
2024/03/30 00:30:15;;;;;;;19.43;12.40;;;10.80;99.90;;;;;;785265;180;26505;-82
2024/03/30 00:32:47;;;;;;;16.33;11.50;;;10.70;99.90;;;;;;773999;186;26496;-82
2024/03/30 00:35:15;;;;;;;16.73;11.53;;;10.80;99.90;;;;;;803059;177;26450;-82
2024/03/30 00:37:41;;;;;;;13.87;10.23;;;10.70;99.90;;;;;;806258;176;26474;-81
2024/03/30 00:40:08;;;;;;;22.83;16.43;;;10.70;99.90;;;;;;805374;176;27061;-80
2024/03/30 00:42:35;;;;;;;20.90;14.53;;;10.70;99.90;;;;;;805489;177;26427;-81
2024/03/30 00:45:02;;;;;;;18.43;12.70;;;10.60;99.90;;;;;;809051;176;26430;-82
2024/03/30 00:47:28;;;;;;;20.07;14.20;;;10.60;99.90;;;;;;800430;177;26442;-81
2024/03/30 00:49:55;;;;;;;23.23;16.03;;;10.50;99.90;;;;;;803408;176;26439;-81
2024/03/30 00:52:21;;;;;;;25.00;17.00;;;10.50;99.90;;;;;;807589;176;26424;-82
2024/03/30 00:54:48;;;;;;;26.20;15.30;;;10.40;99.90;;;;;;803683;176;26443;-81
2024/03/30 00:57:14;;;;;;;21.63;15.23;;;10.40;99.90;;;;;;809861;177;26472;-81
2024/03/30 00:59:41;;;;;;;22.53;15.43;;;10.40;99.90;;;;;;801581;177;26447;-81
2024/03/30 01:02:08;;;;;;;23.23;15.93;;;10.20;99.90;;;;;;806698;177;26591;-82
2024/03/30 01:04:34;;;;;;;26.57;15.20;;;10.20;99.90;;;;;;802802;177;26446;-82
2024/03/30 01:07:03;;;;;;;20.47;14.97;;;10.10;99.90;;;;;;803006;177;26464;-81
2024/03/30 01:09:27;;;;;;;22.47;15.03;;;10.10;99.90;;;;;;804840;177;26446;-81
2024/03/30 01:11:54;;;;;;;20.30;14.67;;;10.20;99.90;;;;;;808817;177;26426;-81
2024/03/30 01:14:24;;;;;;;22.97;15.73;;;10.10;99.90;;;;;;803377;177;26423;-82
2024/03/30 01:16:49;;;;;;;21.13;14.63;;;10.10;99.90;;;;;;799181;177;26435;-82
2024/03/30 01:19:16;;;;;;;22.23;14.43;;;10.10;99.90;;;;;;805827;177;26442;-82
2024/03/30 01:21:42;;;;;;;16.27;13.43;;;10.10;99.90;;;;;;799751;177;26435;-81
2024/03/30 01:24:10;;;;;;;18.47;12.97;;;10.10;99.90;;;;;;794430;178;26455;-81
2024/03/30 01:26:36;;;;;;;17.03;11.87;;;10.10;99.90;;;;;;808007;177;26425;-80
2024/03/30 01:29:03;;;;;;;14.50;10.73;;;10.10;99.90;;;;;;806662;177;26409;-82
2024/03/30 01:31:30;;;;;;;16.13;11.30;;;10.10;99.90;;;;;;808371;176;26463;-82
2024/03/30 01:33:57;;;;;;;14.73;10.73;;;10.10;99.90;;;;;;806630;176;27026;-82
2024/03/30 01:36:23;;;;;;;15.33;9.53;;;10.10;99.90;;;;;;805696;176;26440;-82
2024/03/30 01:38:50;;;;;;;13.93;9.87;;;10.10;99.90;;;;;;806464;176;26425;-82
2024/03/30 01:41:16;;;;;;;13.30;9.90;;;10.10;99.90;;;;;;808280;177;26429;-83
2024/03/30 01:43:43;;;;;;;13.27;9.37;;;10.10;99.90;;;;;;798635;179;26423;-82
2024/03/30 01:46:10;;;;;;;12.63;9.03;;;10.20;99.90;;;;;;808149;177;26450;-81
2024/03/30 01:48:36;;;;;;;12.47;9.20;;;10.20;99.90;;;;;;804236;177;26426;-82
2024/03/30 01:51:03;;;;;;;12.23;9.47;;;10.20;99.90;;;;;;804552;177;26420;-82
2024/03/30 01:53:29;;;;;;;13.97;9.97;;;10.20;99.90;;;;;;801206;177;26476;-82
2024/03/30 01:55:56;;;;;;;12.53;9.87;;;10.20;99.90;;;;;;800178;179;26438;-83
2024/03/30 01:58:23;;;;;;;13.97;10.37;;;10.20;99.90;;;;;;800414;177;26416;-82
2024/03/30 02:00:50;;;;;;;16.53;10.47;;;10.10;99.90;;;;;;802090;177;26455;-81
2024/03/30 02:03:17;;;;;;;13.40;10.27;;;10.20;99.90;;;;;;804253;176;26430;-81
2024/03/30 02:05:43;;;;;;;18.37;10.83;;;10.10;99.90;;;;;;801044;177;26473;-83
2024/03/30 02:08:10;;;;;;;14.10;11.23;;;10.10;99.90;;;;;;798077;177;26467;-81
2024/03/30 02:10:37;;;;;;;20.43;11.70;;;10.10;99.90;;;;;;806280;177;26435;-81
2024/03/30 02:13:03;;;;;;;16.87;10.67;;;10.10;99.90;;;;;;800206;177;26447;-81
2024/03/30 02:15:30;;;;;;;15.23;11.00;;;10.10;99.90;;;;;;809376;175;26436;-81
2024/03/30 02:17:57;;;;;;;18.27;11.63;;;10.10;99.90;;;;;;807002;177;26422;-82
2024/03/30 02:20:23;;;;;;;17.43;12.20;;;10.10;99.90;;;;;;801398;177;26480;-81
2024/03/30 02:22:51;;;;;;;16.57;12.27;;;10.00;99.90;;;;;;801624;177;26409;-80
2024/03/30 02:25:18;;;;;;;15.87;11.63;;;10.10;99.90;;;;;;796937;176;26447;-81
2024/03/30 02:27:44;;;;;;;15.07;11.53;;;10.10;99.90;;;;;;799894;177;26485;-80
2024/03/30 02:30:11;;;;;;;17.97;12.57;;;10.10;99.90;;;;;;802666;177;26426;-81
2024/03/30 02:32:38;;;;;;;18.67;12.13;;;10.10;99.90;;;;;;795227;177;26434;-81
2024/03/30 02:35:04;;;;;;;162.67;71.63;;;10.10;99.90;;;;;;800064;177;26447;-80
2024/03/30 02:37:31;;;;;;;20.03;15.90;;;10.00;99.90;;;;;;801839;177;26475;-80
2024/03/30 02:39:58;;;;;;;20.40;14.37;;;10.00;99.90;;;;;;803315;177;26407;-80
2024/03/30 02:42:24;;;;;;;19.13;14.13;;;10.00;99.90;;;;;;806646;176;26431;-81
2024/03/30 02:44:51;;;;;;;19.27;14.70;;;10.00;99.90;;;;;;803077;176;26464;-80
2024/03/30 02:47:18;;;;;;;22.53;14.77;;;10.00;99.90;;;;;;803006;176;26458;-80
2024/03/30 02:49:44;;;;;;;20.57;15.13;;;10.00;99.90;;;;;;799544;176;26451;-81
2024/03/30 02:52:11;;;;;;;20.90;15.77;;;10.00;99.90;;;;;;797404;177;26462;-80
2024/03/30 02:54:37;;;;;;;22.57;16.33;;;9.90;99.90;;;;;;806608;176;26442;-82
2024/03/30 02:57:04;;;;;;;21.83;16.53;;;9.90;99.90;;;;;;806697;176;26436;-82
2024/03/30 02:59:31;;;;;;;20.50;15.43;;;9.90;99.90;;;;;;805850;176;26435;-82
2024/03/30 03:01:58;;;;;;;24.20;16.23;;;9.90;99.90;;;;;;806898;176;26440;-80
2024/03/30 03:04:24;;;;;;;25.13;16.33;;;9.90;99.90;;;;;;800637;177;26442;-82
2024/03/30 03:06:51;;;;;;;23.90;16.27;;;9.90;99.90;;;;;;796761;177;26505;-81
2024/03/30 03:09:18;;;;;;;26.37;17.17;;;9.90;99.90;;;;;;799023;177;26426;-80
2024/03/30 03:11:45;;;;;;;21.50;16.30;;;9.80;99.90;;;;;;802853;177;26413;-80
2024/03/30 03:14:11;;;;;;;21.27;14.77;;;9.80;99.90;;;;;;798049;177;27102;-79
2024/03/30 03:16:38;;;;;;;23.70;16.13;;;9.90;99.90;;;;;;807450;176;26483;-82
2024/03/30 03:19:05;;;;;;;24.07;16.73;;;9.80;99.90;;;;;;802891;177;26422;-81
2024/03/30 03:21:31;;;;;;;24.93;16.80;;;9.80;99.90;;;;;;797316;177;26444;-81
2024/03/30 03:23:58;;;;;;;24.00;17.17;;;9.70;99.90;;;;;;801168;177;26434;-81
2024/03/30 03:26:24;;;;;;;25.40;16.67;;;9.70;99.90;;;;;;804237;177;26572;-81
2024/03/30 03:28:51;;;;;;;24.63;16.57;;;9.80;99.90;;;;;;804151;177;26446;-80
2024/03/30 03:31:18;;;;;;;22.50;16.10;;;9.80;99.90;;;;;;803520;177;26947;-80
2024/03/30 03:33:44;;;;;;;24.20;15.27;;;9.80;99.90;;;;;;806781;177;26444;-81
2024/03/30 03:36:11;;;;;;;20.60;14.93;;;9.70;99.90;;;;;;806726;177;26453;-81
2024/03/30 03:38:37;;;;;;;22.47;14.53;;;9.80;99.90;;;;;;796935;177;26479;-81
2024/03/30 03:41:04;;;;;;;21.97;15.17;;;9.70;99.90;;;;;;801442;177;26420;-81
2024/03/30 03:43:31;;;;;;;20.63;15.00;;;9.70;99.90;;;;;;801371;176;26439;-81
2024/03/30 03:45:58;;;;;;;24.00;15.53;;;9.70;99.90;;;;;;802347;176;26442;-81
2024/03/30 03:48:24;;;;;;;25.03;15.30;;;9.70;99.90;;;;;;801254;177;26444;-81
2024/03/30 03:50:51;;;;;;;22.50;15.53;;;9.70;99.90;;;;;;798977;177;26433;-81
2024/03/30 03:53:17;;;;;;;20.17;14.70;;;9.80;99.90;;;;;;800765;176;26427;-82
2024/03/30 03:55:44;;;;;;;21.60;14.17;;;9.70;99.90;;;;;;803710;176;26982;-81
2024/03/30 03:58:11;;;;;;;20.70;14.50;;;9.70;99.90;;;;;;808520;176;26436;-81
2024/03/30 04:00:38;;;;;;;23.10;15.80;;;9.80;99.90;;;;;;807372;176;26424;-79
2024/03/30 04:03:05;;;;;;;23.63;14.53;;;9.70;99.90;;;;;;801904;176;26463;-79
2024/03/30 04:05:31;;;;;;;21.87;14.53;;;9.70;99.90;;;;;;805170;177;26441;-82
2024/03/30 04:07:58;;;;;;;20.50;14.13;;;9.70;99.90;;;;;;804925;177;26452;-82
2024/03/30 04:10:25;;;;;;;20.60;14.00;;;9.80;99.90;;;;;;800464;177;26439;-82
2024/03/30 04:12:51;;;;;;;20.03;14.37;;;9.80;99.90;;;;;;803690;176;26502;-81
2024/03/30 04:15:18;;;;;;;25.03;14.87;;;9.70;99.90;;;;;;801205;177;26433;-80
2024/03/30 04:17:44;;;;;;;22.03;15.20;;;9.80;99.90;;;;;;800979;176;26442;-81
2024/03/30 04:20:11;;;;;;;22.90;15.33;;;9.70;99.90;;;;;;807233;176;26414;-82
2024/03/30 04:22:38;;;;;;;23.17;15.27;;;9.80;99.90;;;;;;806494;176;26442;-83
2024/03/30 04:25:05;;;;;;;23.80;15.47;;;9.70;99.90;;;;;;802670;176;26527;-82
2024/03/30 04:27:32;;;;;;;22.93;15.03;;;9.70;99.90;;;;;;800230;179;26430;-82
2024/03/30 04:29:59;;;;;;;21.97;14.80;;;9.70;99.90;;;;;;800987;177;26457;-81
2024/03/30 04:32:25;;;;;;;22.83;15.53;;;9.70;99.90;;;;;;803430;177;26439;-81
2024/03/30 04:34:52;;;;;;;18.83;13.70;;;9.60;99.90;;;;;;798767;177;26452;-81
2024/03/30 04:37:18;;;;;;;23.77;14.73;;;9.60;99.90;;;;;;801942;177;26439;-82
2024/03/30 04:39:45;;;;;;;23.07;14.93;;;9.70;99.90;;;;;;799538;177;26494;-80
2024/03/30 04:42:11;;;;;;;22.07;14.67;;;9.70;99.90;;;;;;798952;177;26465;-81
2024/03/30 04:44:38;;;;;;;20.27;15.27;;;9.70;99.90;;;;;;799695;177;27012;-80
2024/03/30 04:47:05;;;;;;;22.13;14.50;;;9.70;99.90;;;;;;805819;177;26439;-81
2024/03/30 04:49:31;;;;;;;22.80;14.07;;;9.70;99.90;;;;;;803597;177;26433;-81
2024/03/30 04:51:58;;;;;;;20.20;14.30;;;9.70;99.90;;;;;;812023;177;26432;-80
2024/03/30 04:54:24;;;;;;;22.40;15.00;;;9.70;99.90;;;;;;803457;176;26479;-82
2024/03/30 04:56:51;;;;;;;23.20;14.60;;;9.70;99.90;;;;;;798625;177;26430;-80
2024/03/30 04:59:18;;;;;;;22.67;15.53;;;9.70;99.90;;;;;;806379;177;26432;-81
2024/03/30 05:01:44;;;;;;;20.60;14.43;;;9.70;99.90;;;;;;807271;177;26700;-82
2024/03/30 05:04:11;;;;;;;24.73;14.77;;;9.70;99.90;;;;;;801556;174;26473;-80
2024/03/30 05:06:37;;;;;;;23.13;14.13;;;9.70;99.90;;;;;;802380;176;26462;-82
2024/03/30 05:09:04;;;;;;;20.37;13.30;;;9.60;99.90;;;;;;799906;176;26467;-80
2024/03/30 05:11:31;;;;;;;21.53;14.50;;;9.60;99.90;;;;;;795956;177;26561;-80
2024/03/30 05:13:57;;;;;;;22.27;15.00;;;9.60;99.90;;;;;;801788;177;26619;-80
2024/03/30 05:16:24;;;;;;;23.23;15.57;;;9.60;99.90;;;;;;797866;176;26458;-80
2024/03/30 05:18:50;;;;;;;23.73;14.73;;;9.60;99.90;;;;;;798716;179;26961;-80
2024/03/30 05:21:18;;;;;;;24.67;15.17;;;9.70;99.90;;;;;;796011;177;26414;-80
2024/03/30 05:23:45;;;;;;;23.30;15.00;;;9.70;99.90;;;;;;799522;177;26451;-80
2024/03/30 05:26:10;;;;;;;24.27;15.40;;;9.70;99.90;;;;;;804339;177;26970;-80
2024/03/30 05:28:37;;;;;;;25.57;15.57;;;9.70;99.90;;;;;;801247;176;26590;-80
2024/03/30 05:31:04;;;;;;;24.33;15.10;;;9.70;99.90;;;;;;806963;177;26438;-80
2024/03/30 05:33:31;;;;;;;23.83;14.57;;;9.70;99.90;;;;;;797595;177;26534;-80
2024/03/30 05:35:58;;;;;;;20.33;13.87;;;9.70;99.90;;;;;;800210;177;26429;-81
2024/03/30 05:38:24;;;;;;;23.27;14.73;;;9.70;99.90;;;;;;798361;177;27022;-80
2024/03/30 05:40:51;;;;;;;20.93;14.37;;;9.80;99.90;;;;;;801936;177;26428;-80
2024/03/30 05:43:17;;;;;;;22.67;14.03;;;9.80;99.90;;;;;;799096;177;28095;-80
2024/03/30 05:45:47;;;;;;;22.90;14.17;;;9.80;99.90;;;;;;798641;177;26492;-80
2024/03/30 05:48:13;;;;;;;22.63;13.00;;;9.80;99.90;;;;;;803098;177;26517;-81
2024/03/30 05:50:40;;;;;;;20.73;13.90;;;9.90;99.90;;;;;;804716;177;27026;-80
2024/03/30 05:53:06;;;;;;;18.53;12.87;;;9.90;99.90;;;;;;798489;177;26447;-80
2024/03/30 05:55:33;;;;;;;21.57;13.53;;;10.00;99.90;;;;;;796801;177;26474;-77
2024/03/30 05:58:03;;;;;;;19.57;12.50;;;10.00;99.90;;;;;;794846;177;26743;-78
2024/03/30 06:00:26;;;;;;;14.73;11.53;;;10.10;99.90;;;;;;800464;177;26538;-77
2024/03/30 06:02:53;;;;;;;18.03;11.23;;;10.20;99.90;;;;;;799338;177;27029;-78
2024/03/30 06:05:19;;;;;;;19.33;11.07;;;10.20;99.90;;;;;;796701;177;26478;-77
2024/03/30 06:07:46;;;;;;;14.43;10.50;;;10.30;99.90;;;;;;796786;177;26439;-77
2024/03/30 06:10:13;;;;;;;16.23;9.37;;;10.30;99.90;;;;;;797964;177;26423;-78
2024/03/30 06:12:39;;;;;;;15.70;10.00;;;10.40;99.90;;;;;;808452;177;26429;-77
2024/03/30 06:15:06;;;;;;;13.03;8.60;;;10.40;99.90;;;;;;800675;177;26439;-79
2024/03/30 06:17:35;;;;;;;13.70;9.20;;;10.50;99.90;;;;;;807437;174;26451;-77
2024/03/30 06:20:05;;;;;;;12.93;9.10;;;10.50;99.90;;;;;;802265;176;26434;-77
2024/03/30 06:22:29;;;;;;;14.27;8.77;;;10.60;99.90;;;;;;806176;176;26482;-80
2024/03/30 06:24:55;;;;;;;17.00;8.37;;;10.60;99.90;;;;;;804653;176;26428;-83
2024/03/30 06:27:22;;;;;;;15.00;8.30;;;10.60;99.90;;;;;;802559;176;26467;-81
2024/03/30 06:29:48;;;;;;;15.23;7.37;;;10.60;99.90;;;;;;806459;177;26488;-81
2024/03/30 06:32:15;;;;;;;11.50;7.57;;;10.70;99.90;;;;;;805724;177;26529;-80
2024/03/30 06:34:41;;;;;;;10.13;6.20;;;10.70;99.90;;;;;;789497;172;26509;-80
2024/03/30 06:37:08;;;;;;;12.60;6.90;;;10.80;99.90;;;;;;792577;180;26462;-79
2024/03/30 06:44:39;;;;;;;13.73;7.70;;;10.90;99.90;;;;;;790492;179;27709;-80
2024/03/30 06:47:06;;;;;;;11.20;6.77;;;10.90;99.90;;;;;;789886;182;27025;-80
2024/03/30 06:49:32;;;;;;;12.53;6.53;;;10.90;99.90;;;;;;789597;182;26995;-80
2024/03/30 06:51:59;;;;;;;11.40;5.90;;;10.90;99.90;;;;;;792559;180;26513;-79
2024/03/30 06:54:26;;;;;;;12.43;6.50;;;11.00;99.90;;;;;;789791;180;26478;-81
2024/03/30 06:56:52;;;;;;;11.30;6.33;;;11.00;99.90;;;;;;794619;170;26453;-80
2024/03/30 06:59:20;;;;;;;12.00;7.60;;;11.00;99.90;;;;;;799975;176;26479;-79
2024/03/30 07:01:46;;;;;;;12.33;7.00;;;11.00;99.90;;;;;;794698;176;26444;-80
2024/03/30 07:04:14;;;;;;;10.03;7.27;;;11.00;99.90;;;;;;791550;170;26659;-79
2024/03/30 07:06:40;;;;;;;11.07;6.87;;;11.00;99.90;;;;;;793152;177;26476;-80
2024/03/30 07:09:07;;;;;;;11.37;6.93;;;11.10;99.90;;;;;;800731;176;26567;-79
2024/03/30 07:11:34;;;;;;;9.00;6.37;;;11.10;99.90;;;;;;793649;178;26434;-79
2024/03/30 07:14:00;;;;;;;11.90;7.23;;;11.10;99.90;;;;;;791039;181;26484;-78
2024/03/30 07:16:27;;;;;;;11.13;7.23;;;11.20;99.90;;;;;;792076;180;27071;-80
2024/03/30 07:18:54;;;;;;;14.27;7.80;;;11.20;99.90;;;;;;789976;182;26508;-80
2024/03/30 07:21:21;;;;;;;15.73;7.00;;;11.30;99.90;;;;;;789719;181;26475;-80
2024/03/30 07:23:48;;;;;;;13.93;7.57;;;11.30;99.90;;;;;;791817;179;26476;-81
2024/03/30 07:26:15;;;;;;;13.27;7.20;;;11.40;99.90;;;;;;790047;179;26457;-80
2024/03/30 07:28:41;;;;;;;13.83;7.27;;;11.40;99.90;;;;;;793600;180;26450;-80
2024/03/30 07:31:09;;;;;;;16.87;7.80;;;11.50;99.90;;;;;;792933;179;26439;-79
2024/03/30 07:33:35;;;;;;;10.70;7.37;;;11.50;99.90;;;;;;794929;179;28094;-81
2024/03/30 07:36:02;;;;;;;12.33;8.10;;;11.50;99.90;;;;;;793095;178;26471;-79
2024/03/30 07:38:31;;;;;;;12.70;8.47;;;11.60;99.90;;;;;;792099;180;26459;-80
2024/03/30 07:40:55;;;;;;;15.73;8.10;;;11.70;99.90;;;;;;792602;179;26486;-80
2024/03/30 07:43:22;;;;;;;17.53;8.37;;;11.70;99.90;;;;;;793525;180;27154;-79
2024/03/30 07:45:49;;;;;;;12.53;8.10;;;11.80;99.90;;;;;;793159;178;26456;-79
2024/03/30 07:48:16;;;;;;;15.73;7.87;;;11.90;99.90;;;;;;795557;179;26625;-78
2024/03/30 07:50:43;;;;;;;11.70;7.57;;;11.90;99.90;;;;;;795279;179;26458;-79
2024/03/30 07:53:09;;;;;;;15.83;8.43;;;12.00;99.90;;;;;;793587;179;26442;-78
2024/03/30 07:55:36;;;;;;;11.53;7.20;;;12.10;99.90;;;;;;793632;179;26448;-78
2024/03/30 07:58:03;;;;;;;16.07;7.63;;;12.10;99.90;;;;;;793379;179;26513;-79
2024/03/30 08:00:30;;;;;;;13.43;7.53;;;12.20;99.90;;;;;;791877;179;26485;-79
2024/03/30 08:03:01;;;;;;;14.50;7.77;;;12.30;99.90;;;;;;791369;182;26511;-78
2024/03/30 08:05:27;;;;;;;12.63;6.73;;;12.40;99.90;;;;;;790632;180;26473;-80
2024/03/30 08:07:54;;;;;;;13.40;6.90;;;12.50;99.90;;;;;;794559;179;26461;-79
2024/03/30 08:10:21;;;;;;;10.10;6.43;;;12.60;99.90;;;;;;794066;179;26507;-78
2024/03/30 08:12:47;;;;;;;11.70;6.73;;;12.70;99.90;;;;;;790592;180;26453;-79
2024/03/30 08:15:14;;;;;;;10.10;5.87;;;12.70;99.90;;;;;;797494;179;26473;-79
2024/03/30 08:17:40;;;;;;;15.70;6.60;;;12.90;99.90;;;;;;791491;179;26450;-79
2024/03/30 08:20:08;;;;;;;11.40;6.03;;;13.00;99.90;;;;;;792164;180;26475;-78
2024/03/30 08:22:34;;;;;;;11.07;5.80;;;13.10;99.90;;;;;;791719;180;26456;-79
2024/03/30 08:25:00;;;;;;;10.53;5.30;;;13.20;99.90;;;;;;791290;179;26462;-79
2024/03/30 08:27:27;;;;;;;14.07;5.33;;;13.30;99.90;;;;;;789583;180;26589;-80
2024/03/30 08:29:54;;;;;;;7.07;4.83;;;13.40;99.90;;;;;;789580;182;26593;-81
2024/03/30 08:32:21;;;;;;;9.97;4.60;;;13.60;99.90;;;;;;791969;180;26452;-80
2024/03/30 08:34:48;;;;;;;12.10;4.57;;;13.60;99.90;;;;;;789488;182;26469;-79
2024/03/30 08:37:14;;;;;;;10.00;4.70;;;13.80;99.90;;;;;;792001;179;26602;-80
2024/03/30 08:39:41;;;;;;;11.70;5.00;;;13.90;99.90;;;;;;794039;178;27026;-81
2024/03/30 08:42:07;;;;;;;8.63;3.67;;;14.00;99.90;;;;;;794698;179;26449;-80
2024/03/30 08:44:35;;;;;;;10.50;4.00;;;14.20;99.90;;;;;;793754;180;26624;-80
2024/03/30 08:47:02;;;;;;;13.33;3.90;;;14.30;99.90;;;;;;792606;180;26453;-80
2024/03/30 08:49:28;;;;;;;9.47;3.80;;;14.60;99.90;;;;;;793584;179;26453;-81
2024/03/30 08:51:55;;;;;;;13.83;3.50;;;14.70;99.90;;;;;;792915;179;26475;-81
2024/03/30 08:54:21;;;;;;;14.70;3.47;;;15.00;99.90;;;;;;793514;179;26467;-80
2024/03/30 08:56:48;;;;;;;11.93;3.60;;;15.00;99.90;;;;;;793577;180;26462;-80
2024/03/30 08:59:14;;;;;;;12.33;3.57;;;15.10;99.90;;;;;;793202;179;26463;-78
2024/03/30 09:01:41;;;;;;;12.27;3.40;;;15.30;99.90;;;;;;795414;179;26777;-79
2024/03/30 09:04:08;;;;;;;16.80;3.77;;;15.40;99.90;;;;;;793814;179;26460;-79
2024/03/30 09:06:34;;;;;;;14.33;3.27;;;15.40;99.90;;;;;;791310;179;26462;-80
2024/03/30 09:09:01;;;;;;;17.67;3.40;;;15.50;99.90;;;;;;790263;179;27049;-79
2024/03/30 09:11:27;;;;;;;16.77;4.33;;;15.60;99.90;;;;;;796543;180;26465;-79
2024/03/30 09:13:54;;;;;;;14.17;4.00;;;15.80;99.90;;;;;;791914;180;26602;-81
2024/03/30 09:16:21;;;;;;;15.67;3.30;;;15.70;99.90;;;;;;791227;179;26469;-80
2024/03/30 09:18:47;;;;;;;11.53;3.50;;;15.70;99.90;;;;;;791228;180;26473;-81
2024/03/30 09:21:14;;;;;;;19.07;4.23;;;15.70;99.90;;;;;;794506;179;26476;-81
2024/03/30 09:23:42;;;;;;;19.00;4.37;;;15.80;99.90;;;;;;791854;180;26458;-82
2024/03/30 09:26:07;;;;;;;14.30;3.67;;;15.70;99.90;;;;;;791315;178;26486;-81
2024/03/30 09:28:34;;;;;;;15.87;3.87;;;15.60;99.90;;;;;;795423;170;26605;-83
2024/03/30 09:31:00;;;;;;;16.60;4.00;;;15.60;99.90;;;;;;793295;179;26455;-80
2024/03/30 09:33:27;;;;;;;17.73;3.53;;;15.70;99.90;;;;;;792589;179;26468;-79
2024/03/30 09:35:55;;;;;;;17.30;4.50;;;15.70;99.90;;;;;;792548;179;26561;-80
2024/03/30 09:38:20;;;;;;;16.50;4.43;;;15.80;99.90;;;;;;789359;179;26453;-81
2024/03/30 09:40:57;;;;;;;23.97;3.77;;;15.80;99.90;;;;;;790952;179;26484;-81
2024/03/30 09:43:23;;;;;;;11.37;3.53;;;16.00;99.90;;;;;;791936;179;26460;-81
2024/03/30 09:45:50;;;;;;;14.60;3.93;;;16.20;99.90;;;;;;790677;179;27069;-80
2024/03/30 09:48:16;;;;;;;21.50;3.90;;;16.30;99.90;;;;;;794347;179;26531;-81
2024/03/30 09:50:43;;;;;;;21.57;4.37;;;16.40;99.90;;;;;;790152;180;26624;-81
2024/03/30 09:53:09;;;;;;;21.37;6.50;;;16.60;99.90;;;;;;793622;179;26601;-82
2024/03/30 09:55:36;;;;;;;18.13;4.13;;;16.80;99.90;;;;;;792474;179;26471;-78
2024/03/30 09:58:03;;;;;;;18.50;4.07;;;16.90;99.90;;;;;;792519;179;26457;-80
2024/03/30 10:00:30;;;;;;;26.23;4.40;;;17.10;99.90;;;;;;792801;179;26618;-80
2024/03/30 10:02:56;;;;;;;23.57;4.40;;;17.20;99.90;;;;;;793114;179;26446;-80
2024/03/30 10:05:23;;;;;;;20.40;4.00;;;17.30;99.90;;;;;;791064;179;27278;-81
2024/03/30 10:07:54;;;;;;;26.27;4.60;;;17.20;99.90;;;;;;793495;179;26510;-79
2024/03/30 10:10:21;;;;;;;18.93;3.83;;;17.20;99.90;;;;;;790174;179;26445;-79
2024/03/30 10:13:07;;;;;;;20.63;4.03;;;17.30;99.90;;;;;;792533;179;26441;-79
2024/03/30 10:15:34;;;;;;;23.53;4.70;;;17.30;99.90;;;;;;789478;179;26473;-80
2024/03/30 10:18:01;;;;;;;19.50;4.80;;;17.50;99.90;;;;;;792055;179;26481;-79
2024/03/30 10:20:28;;;;;;;22.23;4.33;;;17.60;99.90;;;;;;792936;179;26448;-78
2024/03/30 10:22:54;;;;;;;20.37;4.10;;;17.40;99.90;;;;;;797884;179;26451;-80
2024/03/30 10:25:21;;;;;;;20.40;4.70;;;17.30;99.90;;;;;;794863;179;26461;-81
2024/03/30 10:27:48;;;;;;;28.63;4.33;;;17.10;99.90;;;;;;790865;179;26457;-79
2024/03/30 10:30:14;;;;;;;19.60;4.03;;;17.10;99.90;;;;;;793944;180;26789;-82
2024/03/30 10:32:41;;;;;;;27.20;4.17;;;17.20;99.90;;;;;;794472;179;26481;-79
2024/03/30 10:35:08;;;;;;;23.50;4.50;;;17.20;99.90;;;;;;790415;180;26479;-80
2024/03/30 10:37:35;;;;;;;28.73;5.00;;;17.20;99.90;;;;;;789634;182;27020;-80
2024/03/30 10:40:07;;;;;;;20.90;4.70;;;17.10;99.90;;;;;;792677;179;26602;-81
2024/03/30 10:42:34;;;;;;;14.77;3.90;;;17.00;99.90;;;;;;791491;180;26478;-81
2024/03/30 10:45:01;;;;;;;30.07;5.10;;;17.00;99.90;;;;;;790835;179;26634;-80
2024/03/30 10:47:27;;;;;;;22.77;4.77;;;17.00;99.90;;;;;;793566;179;26454;-79
2024/03/30 10:49:54;;;;;;;23.83;5.27;;;16.90;99.90;;;;;;789841;182;26457;-80
2024/03/30 10:52:20;;;;;;;26.97;4.47;;;16.90;99.90;;;;;;798133;179;26456;-80
2024/03/30 10:54:47;;;;;;;28.87;4.30;;;16.90;99.90;;;;;;794069;179;26477;-80
2024/03/30 10:57:13;;;;;;;30.73;5.43;;;16.90;99.90;;;;;;792920;179;26590;-80
2024/03/30 10:59:45;;;;;;;17.00;4.40;;;16.90;99.90;;;;;;793773;180;26445;-80
2024/03/30 11:02:07;;;;;;;26.77;4.70;;;16.90;99.90;;;;;;794021;180;26457;-80
2024/03/30 11:04:34;;;;;;;23.83;4.93;;;17.00;99.90;;;;;;795493;180;26457;-81
2024/03/30 11:07:01;;;;;;;30.70;4.87;;;17.00;99.90;;;;;;794058;179;26441;-80
2024/03/30 11:09:28;;;;;;;33.67;5.90;;;17.00;99.90;;;;;;793755;179;26988;-80
2024/03/30 11:11:54;;;;;;;36.17;6.13;;;17.00;99.80;;;;;;792133;180;26479;-80
2024/03/30 11:14:20;;;;;;;32.47;6.03;;;17.00;99.40;;;;;;797375;179;26483;-80
2024/03/30 11:16:47;;;;;;;35.07;6.73;;;17.10;98.60;;;;;;791625;179;27060;-79
2024/03/30 11:19:17;;;;;;;36.20;6.40;;;17.10;98.30;;;;;;795033;179;26466;-80
2024/03/30 11:21:47;;;;;;;37.60;7.13;;;17.20;96.00;;;;;;791609;179;26459;-83
2024/03/30 11:24:14;;;;;;;40.00;6.73;;;17.30;96.10;;;;;;790167;180;26470;-79
2024/03/30 11:26:40;;;;;;;36.40;6.37;;;17.30;98.10;;;;;;792918;179;27071;-81
2024/03/30 11:29:10;;;;;;;35.33;6.67;;;17.20;98.60;;;;;;792859;179;26482;-81
2024/03/30 11:31:40;;;;;;;35.70;7.03;;;17.20;99.80;;;;;;797714;179;26456;-81
2024/03/30 11:34:07;;;;;;;33.63;6.30;;;17.20;99.90;;;;;;792277;180;26466;-82
2024/03/30 11:36:34;;;;;;;24.73;6.60;;;17.20;99.90;;;;;;790650;180;26602;-81
2024/03/30 11:39:16;;;;;;;44.07;6.70;;;17.00;99.90;;;;;;789589;180;26467;-81
2024/03/30 11:41:43;;;;;;;38.87;6.73;;;17.00;99.80;;;;;;795447;179;26586;-80
2024/03/30 11:44:09;;;;;;;48.80;7.93;;;17.10;99.10;;;;;;790655;182;26481;-80
2024/03/30 11:46:38;;;;;;;52.80;7.77;;;17.10;98.10;;;;;;794324;179;26471;-81
2024/03/30 11:49:04;;;;;;;41.17;7.60;;;17.10;96.00;;;;;;795404;179;26458;-80
2024/03/30 11:51:31;;;;;;;85.00;25.53;;;17.20;94.50;;;;;;793669;179;26486;-80
2024/03/30 11:53:58;;;;;;;84.40;25.10;;;17.30;92.90;;;;;;792590;179;26460;-81
2024/03/30 11:56:24;;;;;;;61.07;11.27;;;17.40;93.30;;;;;;790009;180;26480;-79
2024/03/30 11:58:51;;;;;;;63.47;8.23;;;17.40;90.60;;;;;;790182;180;26455;-81
2024/03/30 12:01:17;;;;;;;66.53;8.77;;;17.40;88.90;;;;;;790033;179;26474;-80
2024/03/30 12:03:44;;;;;;;64.67;8.70;;;17.40;89.70;;;;;;791097;179;26507;-80
2024/03/30 12:06:11;;;;;;;62.60;9.67;;;17.30;88.50;;;;;;791397;180;26461;-80
2024/03/30 12:08:37;;;;;;;63.03;9.87;;;17.40;89.50;;;;;;791162;180;26456;-80
2024/03/30 12:11:04;;;;;;;103.00;23.80;;;17.40;86.50;;;;;;790091;179;26994;-80
2024/03/30 12:13:34;;;;;;;79.50;24.50;;;17.40;90.40;;;;;;791515;179;26504;-79
2024/03/30 12:16:01;;;;;;;60.63;13.63;;;17.40;86.40;;;;;;794212;178;26809;-81
2024/03/30 12:18:28;;;;;;;60.40;8.40;;;17.40;84.80;;;;;;794209;179;26457;-80
2024/03/30 12:20:55;;;;;;;62.27;9.30;;;17.40;84.80;;;;;;792264;179;26474;-79
2024/03/30 12:23:23;;;;;;;40.33;8.63;;;17.40;82.90;;;;;;793663;180;26500;-80
2024/03/30 12:25:49;;;;;;;42.70;7.83;;;17.50;82.40;;;;;;791515;179;26489;-79
2024/03/30 12:28:15;;;;;;;41.73;7.53;;;17.50;81.30;;;;;;782271;180;26486;-80
2024/03/30 12:30:43;;;;;;;62.43;18.93;;;17.50;81.60;;;;;;791421;180;26460;-80
2024/03/30 12:33:09;;;;;;;55.03;7.67;;;17.40;80.60;;;;;;791590;180;26505;-80
2024/03/30 12:35:36;;;;;;;52.43;10.20;;;17.50;78.50;;;;;;794481;179;26459;-80